createdAt,value
2022-08-31T00:00:29.080Z,100936.09
2022-08-31T00:04:38.323Z,100934.63
2022-08-31T00:08:40.707Z,100927.78
2022-08-31T00:12:44.168Z,100930.03
2022-08-31T00:16:46.626Z,100931.16
2022-08-31T00:20:49.111Z,100935.81
2022-08-31T00:24:51.400Z,100949.22
2022-08-31T00:28:53.768Z,100946.91
2022-08-31T00:32:57.158Z,100964.03
2022-08-31T00:37:01.384Z,100964.19
2022-08-31T00:41:04.203Z,100979.13
2022-08-31T00:45:08.210Z,100962.50
2022-08-31T00:49:25.194Z,100970.78
2022-08-31T00:53:28.027Z,100969.97
2022-08-31T00:57:38.557Z,100970.44
2022-08-31T01:01:41.047Z,100983.44
2022-08-31T01:05:43.846Z,100976.25
2022-08-31T01:09:55.398Z,100970.03
2022-08-31T01:13:59.907Z,100971.41
2022-08-31T01:18:04.751Z,100972.88
2022-08-31T01:22:23.010Z,100977.88
2022-08-31T01:26:28.506Z,100967.41
2022-08-31T01:30:30.886Z,100979.94
2022-08-31T01:34:34.614Z,100980.56
2022-08-31T01:38:37.157Z,100973.94
2022-08-31T01:42:39.347Z,100975.16
2022-08-31T01:46:45.493Z,100988.50
2022-08-31T01:50:48.137Z,100990.81
2022-08-31T01:54:51.226Z,100994.53
2022-08-31T01:58:53.533Z,100991.81
2022-08-31T02:03:08.365Z,100995.00
2022-08-31T02:07:11.782Z,100984.97
2022-08-31T02:11:14.065Z,100983.03
2022-08-31T02:15:16.681Z,100970.66
2022-08-31T02:19:19.142Z,100966.75
2022-08-31T02:23:21.402Z,100965.03
2022-08-31T02:27:25.457Z,100956.06
2022-08-31T02:31:27.768Z,100961.38
2022-08-31T02:35:36.334Z,100965.97
2022-08-31T02:39:38.388Z,100962.84
2022-08-31T02:43:41.572Z,100957.75
2022-08-31T02:47:43.694Z,100948.13
2022-08-31T02:51:59.706Z,100940.00
2022-08-31T02:56:03.243Z,100954.47
2022-08-31T03:00:07.691Z,100954.47
2022-08-31T03:04:09.978Z,100963.03
2022-08-31T03:08:12.362Z,100961.78
2022-08-31T03:12:14.640Z,100955.53
2022-08-31T03:16:17.683Z,100958.06
2022-08-31T03:20:21.939Z,100954.03
2022-08-31T03:24:27.140Z,100957.63
2022-08-31T03:28:31.058Z,100955.84
2022-08-31T03:33:02.294Z,100960.59
2022-08-31T03:37:06.923Z,100964.81
2022-08-31T03:41:11.302Z,100963.97
2022-08-31T03:45:14.233Z,100970.34
2022-08-31T03:49:21.222Z,100962.41
2022-08-31T03:53:43.904Z,100968.81
2022-08-31T03:57:52.314Z,100965.44
2022-08-31T04:01:54.593Z,100964.38
2022-08-31T04:06:15.333Z,100971.78
2022-08-31T04:10:39.075Z,100974.28
2022-08-31T04:14:59.994Z,100970.25
2022-08-31T04:19:20.926Z,100982.78
2022-08-31T04:23:32.334Z,100975.75
2022-08-31T04:27:34.385Z,100975.94
2022-08-31T04:31:38.211Z,100979.69
2022-08-31T04:35:43.077Z,100988.56
2022-08-31T04:39:50.372Z,100999.44
2022-08-31T04:43:55.640Z,101004.69
2022-08-31T04:47:58.808Z,101012.03
2022-08-31T04:52:00.913Z,101006.31
2022-08-31T04:56:15.050Z,101008.97
2022-08-31T05:00:19.057Z,101008.88
2022-08-31T05:04:47.779Z,101022.06
2022-08-31T05:09:03.521Z,101022.06
2022-08-31T05:13:05.915Z,101033.75
2022-08-31T05:17:14.739Z,101036.00
2022-08-31T05:21:28.612Z,101029.63
2022-08-31T05:25:31.296Z,101038.44
2022-08-31T05:29:33.562Z,101051.00
2022-08-31T05:34:01.920Z,101046.66
2022-08-31T05:38:11.971Z,101060.19
2022-08-31T05:42:15.730Z,101090.59
2022-08-31T05:46:18.997Z,101109.53
2022-08-31T05:50:22.224Z,101123.69
2022-08-31T05:54:25.085Z,101123.69
2022-08-31T05:58:27.858Z,101124.31
2022-08-31T06:02:30.358Z,101126.34
2022-08-31T06:06:34.266Z,101134.69
2022-08-31T06:10:36.830Z,101142.41
2022-08-31T06:14:44.799Z,101154.22
2022-08-31T06:18:51.776Z,101155.56
2022-08-31T06:22:53.870Z,101164.97
2022-08-31T06:27:10.460Z,101168.06
2022-08-31T06:31:16.398Z,101179.03
2022-08-31T06:35:19.150Z,101177.50
2022-08-31T06:39:35.845Z,101181.47
2022-08-31T06:43:48.425Z,101187.06
2022-08-31T06:48:01.671Z,101172.91
2022-08-31T06:52:04.165Z,101186.94
2022-08-31T06:56:20.246Z,101201.66
2022-08-31T07:00:41.625Z,101192.63
2022-08-31T07:05:07.318Z,101197.56
2022-08-31T07:09:16.201Z,101207.09
2022-08-31T07:13:18.460Z,101201.31
2022-08-31T07:17:20.912Z,101212.22
2022-08-31T07:21:29.058Z,101208.09
2022-08-31T07:25:31.961Z,101211.31
2022-08-31T07:29:40.796Z,101208.22
2022-08-31T07:33:46.632Z,101212.22
2022-08-31T07:38:07.507Z,101206.00
2022-08-31T07:42:14.500Z,101214.22
2022-08-31T07:46:16.663Z,101213.59
2022-08-31T07:50:20.609Z,101211.44
2022-08-31T07:54:42.518Z,101207.41
2022-08-31T07:58:54.163Z,101221.69
2022-08-31T08:03:08.071Z,101223.53
2022-08-31T08:07:45.372Z,101216.13
2022-08-31T08:12:15.517Z,101227.28
2022-08-31T08:16:30.291Z,101224.97
2022-08-31T08:20:55.683Z,101232.16
2022-08-31T08:24:59.338Z,101241.84
2022-08-31T08:29:19.472Z,101247.47
2022-08-31T08:33:22.344Z,101246.91
2022-08-31T08:37:47.451Z,101242.91
2022-08-31T08:41:47.949Z,101232.84
2022-08-31T08:45:53.739Z,101236.88
2022-08-31T08:50:05.572Z,101237.41
2022-08-31T08:54:15.236Z,101241.78
2022-08-31T08:58:19.519Z,101243.25
2022-08-31T09:02:37.392Z,101240.53
2022-08-31T09:06:54.554Z,101245.59
2022-08-31T09:11:17.900Z,101235.19
2022-08-31T09:15:39.036Z,101237.19
2022-08-31T09:20:00.435Z,101238.28
2022-08-31T09:24:12.968Z,101237.41
2022-08-31T09:28:53.053Z,101246.56
2022-08-31T09:32:57.438Z,101239.09
2022-08-31T09:37:23.391Z,101228.81
2022-08-31T09:41:38.286Z,101233.09
2022-08-31T09:46:08.716Z,101240.41
2022-08-31T09:50:11.239Z,101234.50
2022-08-31T09:54:34.466Z,101223.16
2022-08-31T09:58:36.765Z,101217.59
2022-08-31T10:02:38.764Z,101216.75
2022-08-31T10:06:49.968Z,101206.44
2022-08-31T10:10:52.045Z,101210.09
2022-08-31T10:15:04.304Z,101212.75
2022-08-31T10:19:18.226Z,101213.09
2022-08-31T10:23:37.400Z,101210.69
2022-08-31T10:27:45.066Z,101203.72
2022-08-31T10:31:52.402Z,101208.03
2022-08-31T10:35:58.824Z,101213.06
2022-08-31T10:40:09.763Z,101201.81
2022-08-31T10:44:26.415Z,101193.31
2022-08-31T10:48:28.703Z,101198.28
2022-08-31T10:52:43.161Z,101200.16
2022-08-31T10:57:00.807Z,101196.38
2022-08-31T11:01:17.163Z,101188.38
2022-08-31T11:05:33.619Z,101180.66
2022-08-31T11:09:58.931Z,101181.25
2022-08-31T11:14:27.326Z,101179.63
2022-08-31T11:18:40.385Z,101177.16
2022-08-31T11:22:56.351Z,101175.59
2022-08-31T11:27:07.226Z,101178.50
2022-08-31T11:31:23.784Z,101178.19
2022-08-31T11:36:07.661Z,101167.91
2022-08-31T11:40:11.677Z,101167.66
2022-08-31T11:44:29.901Z,101169.66
2022-08-31T11:48:51.538Z,101170.50
2022-08-31T11:52:56.885Z,101171.59
2022-08-31T11:56:59.111Z,101170.75
2022-08-31T12:01:34.432Z,101166.25
2022-08-31T12:05:56.400Z,101161.91
2022-08-31T12:10:07.887Z,101154.63
2022-08-31T12:14:34.963Z,101145.72
2022-08-31T12:19:01.815Z,101132.19
2022-08-31T12:23:38.046Z,101128.63
2022-08-31T12:27:51.156Z,101125.19
2022-08-31T12:32:10.581Z,101125.88
2022-08-31T12:36:19.556Z,101110.53
2022-08-31T12:40:23.112Z,101110.84
2022-08-31T12:44:33.610Z,101108.03
2022-08-31T12:49:04.837Z,101105.22
2022-08-31T12:53:24.947Z,101106.34
2022-08-31T12:57:52.066Z,101103.28
2022-08-31T13:01:54.378Z,101108.34
2022-08-31T13:06:05.830Z,101106.41
2022-08-31T13:10:13.926Z,101091.81
2022-08-31T13:14:21.144Z,101086.66
2022-08-31T13:18:26.435Z,101081.09
2022-08-31T13:22:32.981Z,101070.38
2022-08-31T13:26:36.688Z,101075.13
2022-08-31T13:30:40.354Z,101073.63
2022-08-31T13:34:42.614Z,101079.38
2022-08-31T13:38:51.663Z,101079.28
2022-08-31T13:42:57.034Z,101074.91
2022-08-31T13:47:03.066Z,101071.47
2022-08-31T13:51:13.730Z,101079.44
2022-08-31T13:55:32.645Z,101078.84
2022-08-31T13:59:37.924Z,101073.59
2022-08-31T14:03:59.299Z,101065.47
2022-08-31T14:08:04.051Z,101073.66
2022-08-31T14:12:06.532Z,101069.53
2022-08-31T14:16:09.746Z,101068.94
2022-08-31T14:20:36.222Z,101073.72
2022-08-31T14:24:38.657Z,101061.13
2022-08-31T14:28:45.788Z,101067.06
2022-08-31T14:32:47.848Z,101059.28
2022-08-31T14:37:20.061Z,101058.75
2022-08-31T14:41:32.807Z,101068.00
2022-08-31T14:45:37.163Z,101065.69
2022-08-31T14:49:45.546Z,101068.53
2022-08-31T14:53:47.762Z,101062.19
2022-08-31T14:57:58.327Z,101061.69
2022-08-31T15:02:00.902Z,101065.97
2022-08-31T15:06:04.511Z,101057.41
2022-08-31T15:10:13.645Z,101066.03
2022-08-31T15:14:15.713Z,101062.22
2022-08-31T15:18:20.936Z,101055.13
2022-08-31T15:22:26.592Z,101057.66
2022-08-31T15:26:30.227Z,101063.59
2022-08-31T15:30:33.898Z,101063.06
2022-08-31T15:34:37.619Z,101068.53
2022-08-31T15:38:40.350Z,101066.91
2022-08-31T15:42:43.744Z,101068.06
2022-08-31T15:47:05.518Z,101070.75
2022-08-31T15:51:18.656Z,101072.69
2022-08-31T15:55:26.633Z,101071.13
2022-08-31T15:59:29.101Z,101074.06
2022-08-31T16:03:34.749Z,101072.09
2022-08-31T16:07:39.211Z,101065.44
2022-08-31T16:11:41.867Z,101076.25
2022-08-31T16:15:52.065Z,101075.13
2022-08-31T16:19:54.182Z,101087.44
2022-08-31T16:24:02.520Z,101085.81
2022-08-31T16:28:06.392Z,101091.56
2022-08-31T16:32:09.526Z,101084.38
2022-08-31T16:36:17.467Z,101083.38
2022-08-31T16:40:19.860Z,101088.63
2022-08-31T16:44:21.970Z,101083.34
2022-08-31T16:48:42.970Z,101083.47
2022-08-31T16:52:45.074Z,101083.84
2022-08-31T16:56:51.228Z,101083.72
2022-08-31T17:00:56.027Z,101088.44
2022-08-31T17:05:03.917Z,101087.88
2022-08-31T17:09:16.385Z,101088.38
2022-08-31T17:13:18.808Z,101089.06
2022-08-31T17:17:24.962Z,101092.47
2022-08-31T17:21:31.747Z,101092.13
2022-08-31T17:25:35.871Z,101085.13
2022-08-31T17:29:43.749Z,101094.25
2022-08-31T17:33:46.477Z,101105.66
2022-08-31T17:37:50.146Z,101110.59
2022-08-31T17:41:53.407Z,101115.31
2022-08-31T17:45:55.683Z,101119.66
2022-08-31T17:49:57.830Z,101113.03
2022-08-31T17:54:04.968Z,101115.94
2022-08-31T17:58:07.816Z,101116.16
2022-08-31T18:02:14.213Z,101115.69
2022-08-31T18:06:19.653Z,101121.75
2022-08-31T18:10:22.086Z,101120.66
2022-08-31T18:14:27.559Z,101125.22
2022-08-31T18:18:30.191Z,101129.47
2022-08-31T18:22:32.268Z,101135.38
2022-08-31T18:26:37.805Z,101139.22
2022-08-31T18:30:41.828Z,101142.47
2022-08-31T18:34:44.978Z,101134.50
2022-08-31T18:38:47.028Z,101137.19
2022-08-31T18:43:07.676Z,101143.84
2022-08-31T18:47:12.004Z,101139.47
2022-08-31T18:51:18.990Z,101142.28
2022-08-31T18:55:21.659Z,101143.97
2022-08-31T18:59:24.067Z,101141.66
2022-08-31T19:03:27.501Z,101143.34
2022-08-31T19:07:30.083Z,101138.63
2022-08-31T19:11:34.158Z,101137.66
2022-08-31T19:15:40.198Z,101135.72
2022-08-31T19:19:42.375Z,101135.97
2022-08-31T19:23:45.945Z,101137.78
2022-08-31T19:27:51.359Z,101136.69
2022-08-31T19:31:56.508Z,101135.59
2022-08-31T19:36:04.506Z,101138.00
2022-08-31T19:40:07.901Z,101131.13
2022-08-31T19:44:13.986Z,101134.94
2022-08-31T19:48:18.850Z,101133.44
2022-08-31T19:52:20.991Z,101135.00
2022-08-31T19:56:31.163Z,101129.63
2022-08-31T20:00:36.184Z,101127.94
2022-08-31T20:04:38.482Z,101124.09
2022-08-31T20:08:42.641Z,101123.59
2022-08-31T20:12:46.658Z,101119.97
2022-08-31T20:16:50.155Z,101123.16
2022-08-31T20:20:53.406Z,101119.22
2022-08-31T20:24:55.810Z,101116.91
2022-08-31T20:29:00.818Z,101116.09
2022-08-31T20:33:02.983Z,101119.09
2022-08-31T20:37:05.791Z,101119.53
2022-08-31T20:41:08.200Z,101112.03
2022-08-31T20:45:10.822Z,101113.41
2022-08-31T20:49:26.006Z,101112.88
2022-08-31T20:53:42.889Z,101110.25
2022-08-31T20:57:47.084Z,101113.28
2022-08-31T21:01:55.935Z,101123.13
2022-08-31T21:06:01.261Z,101118.28
2022-08-31T21:10:06.699Z,101118.41
2022-08-31T21:14:08.862Z,101130.56
2022-08-31T21:18:12.695Z,101134.16
2022-08-31T21:22:17.403Z,101132.69
2022-08-31T21:26:22.700Z,101143.78
2022-08-31T21:30:25.244Z,101130.78
2022-08-31T21:34:27.546Z,101139.25
2022-08-31T21:38:29.667Z,101141.16
2022-08-31T21:42:33.071Z,101150.03
2022-08-31T21:46:36.401Z,101151.84
2022-08-31T21:50:38.708Z,101155.47
2022-08-31T21:54:46.260Z,101159.47
2022-08-31T21:58:49.568Z,101154.41
2022-08-31T22:02:51.566Z,101160.00
2022-08-31T22:06:54.688Z,101163.72
2022-08-31T22:10:58.479Z,101160.84
2022-08-31T22:15:05.563Z,101160.75
2022-08-31T22:19:14.218Z,101150.47
2022-08-31T22:23:16.488Z,101163.28
2022-08-31T22:27:18.692Z,101167.28
2022-08-31T22:31:22.802Z,101167.50
2022-08-31T22:35:25.171Z,101167.19
2022-08-31T22:39:30.272Z,101158.06
2022-08-31T22:43:32.326Z,101159.44
2022-08-31T22:47:49.228Z,101154.97
2022-08-31T22:51:52.153Z,101153.38
2022-08-31T22:55:54.489Z,101145.59
2022-08-31T22:59:56.575Z,101137.28
2022-08-31T23:04:02.186Z,101151.56
2022-08-31T23:08:04.666Z,101149.97
2022-08-31T23:12:07.415Z,101141.81
2022-08-31T23:16:11.268Z,101150.16
2022-08-31T23:20:20.066Z,101146.16
2022-08-31T23:24:28.154Z,101142.81
2022-08-31T23:28:30.625Z,101148.03
2022-08-31T23:32:35.105Z,101135.63
2022-08-31T23:36:38.597Z,101138.69
2022-08-31T23:40:41.410Z,101131.25
2022-08-31T23:44:46.686Z,101125.66
2022-08-31T23:48:48.904Z,101119.84
2022-08-31T23:52:53.393Z,101105.94
2022-08-31T23:56:57.967Z,101095.75
